createdAt,value
2023-01-31T00:00:12.946Z,2.47
2023-01-31T00:06:17.511Z,2.20
2023-01-31T00:12:24.563Z,2.30
2023-01-31T00:18:29.111Z,3.30
2023-01-31T00:24:33.679Z,2.90
2023-01-31T00:30:38.259Z,1.07
2023-01-31T00:36:43.155Z,1.57
2023-01-31T00:42:47.674Z,2.60
2023-01-31T00:48:52.140Z,2.97
2023-01-31T00:54:56.791Z,2.80
2023-01-31T01:01:02.587Z,3.80
2023-01-31T01:07:07.573Z,1.97
2023-01-31T01:13:12.109Z,2.00
2023-01-31T01:19:16.740Z,2.50
2023-01-31T01:25:22.723Z,2.10
2023-01-31T01:31:30.414Z,2.50
2023-01-31T01:37:37.037Z,2.10
2023-01-31T01:43:41.570Z,2.30
2023-01-31T01:49:48.831Z,1.30
2023-01-31T01:55:58.832Z,2.20
2023-01-31T02:02:03.799Z,1.80
2023-01-31T02:08:10.029Z,1.20
2023-01-31T02:14:14.770Z,2.70
2023-01-31T02:20:26.638Z,1.70
2023-01-31T02:26:59.781Z,1.93
2023-01-31T02:33:31.826Z,2.90
2023-01-31T02:39:48.766Z,2.40
2023-01-31T02:45:57.808Z,2.10
2023-01-31T02:52:17.495Z,1.47
2023-01-31T02:58:22.268Z,1.63
2023-01-31T03:04:31.772Z,1.53
2023-01-31T03:10:36.520Z,1.63
2023-01-31T03:17:08.832Z,1.70
2023-01-31T03:23:19.132Z,2.00
2023-01-31T03:29:31.947Z,0.87
2023-01-31T03:35:36.670Z,1.80
2023-01-31T03:41:45.028Z,1.33
2023-01-31T03:47:53.833Z,1.90
2023-01-31T03:54:03.510Z,1.57
2023-01-31T04:00:12.930Z,1.90
2023-01-31T04:06:22.031Z,1.90
2023-01-31T04:12:28.582Z,1.70
2023-01-31T04:18:34.841Z,2.50
2023-01-31T04:24:41.219Z,1.57
2023-01-31T04:30:45.809Z,1.87
2023-01-31T04:36:50.393Z,2.73
2023-01-31T04:42:55.076Z,1.90
2023-01-31T04:48:59.749Z,1.37
2023-01-31T04:55:04.295Z,1.57
2023-01-31T05:01:09.565Z,2.73
2023-01-31T05:07:14.162Z,1.00
2023-01-31T05:13:18.687Z,1.90
2023-01-31T05:19:23.224Z,1.80
2023-01-31T05:25:36.189Z,2.47
2023-01-31T05:31:40.819Z,2.17
2023-01-31T05:37:46.255Z,1.80
2023-01-31T05:43:58.237Z,1.70
2023-01-31T05:50:03.186Z,1.70
2023-01-31T05:56:08.529Z,1.10
2023-01-31T06:02:13.087Z,1.93
2023-01-31T06:08:17.804Z,1.33
2023-01-31T06:14:22.370Z,1.00
2023-01-31T06:20:26.992Z,1.40
2023-01-31T06:26:31.937Z,1.80
2023-01-31T06:32:36.502Z,1.73
2023-01-31T06:38:41.023Z,1.60
2023-01-31T06:44:45.772Z,2.30
2023-01-31T06:50:50.262Z,1.97
2023-01-31T06:56:54.997Z,2.53
2023-01-31T07:02:59.535Z,2.73
2023-01-31T07:09:04.061Z,2.40
2023-01-31T07:15:08.583Z,1.57
2023-01-31T07:21:14.045Z,1.97
2023-01-31T07:27:18.549Z,3.33
2023-01-31T07:33:23.069Z,1.90
2023-01-31T07:39:27.692Z,2.00
2023-01-31T07:45:32.246Z,2.10
2023-01-31T07:51:38.792Z,2.50
2023-01-31T07:57:43.348Z,2.70
2023-01-31T08:03:47.932Z,1.97
2023-01-31T08:09:52.533Z,1.70
2023-01-31T08:15:57.019Z,2.13
2023-01-31T08:22:02.098Z,2.17
2023-01-31T08:28:06.648Z,1.80
2023-01-31T08:34:12.475Z,1.93
2023-01-31T08:40:17.007Z,2.30
2023-01-31T08:46:21.552Z,1.97
2023-01-31T08:52:26.698Z,1.63
2023-01-31T08:58:32.403Z,2.10
2023-01-31T09:04:37.623Z,2.83
2023-01-31T09:10:42.169Z,2.03
2023-01-31T09:16:47.035Z,1.40
2023-01-31T09:22:51.627Z,2.70
2023-01-31T09:28:57.831Z,2.30
2023-01-31T09:35:02.514Z,2.60
2023-01-31T09:41:08.780Z,2.00
2023-01-31T09:47:18.375Z,2.20
2023-01-31T09:53:24.109Z,2.63
2023-01-31T09:59:40.505Z,1.90
2023-01-31T10:05:45.048Z,2.60
2023-01-31T10:11:55.303Z,2.73
2023-01-31T10:18:24.727Z,2.20
2023-01-31T10:24:33.922Z,2.50
2023-01-31T10:30:43.838Z,2.30
2023-01-31T10:36:48.719Z,2.10
2023-01-31T10:43:05.363Z,1.20
2023-01-31T10:49:18.875Z,2.30
2023-01-31T10:55:45.269Z,1.40
2023-01-31T11:01:49.762Z,2.20
2023-01-31T11:07:55.232Z,2.53
2023-01-31T11:14:05.690Z,2.33
2023-01-31T11:20:36.937Z,1.70
2023-01-31T11:26:41.540Z,1.70
2023-01-31T11:32:47.597Z,1.97
2023-01-31T11:38:59.888Z,2.47
2023-01-31T11:45:14.409Z,3.80
2023-01-31T11:51:40.753Z,4.10
2023-01-31T11:57:45.504Z,2.63
2023-01-31T12:04:03.054Z,3.50
2023-01-31T12:10:30.350Z,3.20
2023-01-31T12:16:34.981Z,3.20
2023-01-31T12:23:00.734Z,3.00
2023-01-31T12:29:25.687Z,2.07
2023-01-31T12:35:39.294Z,3.93
2023-01-31T12:42:13.781Z,3.00
2023-01-31T12:48:34.464Z,3.43
2023-01-31T12:55:03.036Z,1.77
2023-01-31T13:01:13.710Z,2.90
2023-01-31T13:07:21.177Z,4.20
2023-01-31T13:13:30.328Z,3.00
2023-01-31T13:19:37.139Z,5.37
2023-01-31T13:25:44.128Z,4.80
2023-01-31T13:31:59.690Z,3.37
2023-01-31T13:38:10.542Z,4.03
2023-01-31T13:44:17.485Z,3.20
2023-01-31T13:50:29.509Z,3.67
2023-01-31T13:56:41.093Z,3.93
2023-01-31T14:02:49.133Z,5.33
2023-01-31T14:09:31.878Z,2.50
2023-01-31T14:15:36.425Z,4.23
2023-01-31T14:21:40.993Z,4.00
2023-01-31T14:27:45.823Z,2.40
2023-01-31T14:34:11.158Z,2.30
2023-01-31T14:40:38.878Z,3.20
2023-01-31T14:47:30.892Z,3.40
2023-01-31T14:54:07.512Z,2.83
2023-01-31T15:00:35.995Z,3.23
2023-01-31T15:06:43.814Z,3.93
2023-01-31T15:12:49.442Z,3.17
2023-01-31T15:18:54.508Z,4.10
2023-01-31T15:25:01.298Z,4.70
2023-01-31T15:31:14.889Z,4.70
2023-01-31T15:37:30.491Z,4.67
2023-01-31T15:43:39.453Z,4.50
2023-01-31T15:49:46.991Z,4.73
2023-01-31T15:56:03.388Z,4.83
2023-01-31T16:02:08.196Z,2.70
2023-01-31T16:08:20.221Z,2.43
2023-01-31T16:14:45.110Z,4.40
2023-01-31T16:20:52.591Z,4.20
2023-01-31T16:27:09.244Z,4.37
2023-01-31T16:33:26.858Z,6.00
2023-01-31T16:39:31.544Z,7.30
2023-01-31T16:45:39.369Z,5.90
2023-01-31T16:51:46.502Z,7.30
2023-01-31T16:58:08.501Z,4.53
2023-01-31T17:04:21.119Z,5.07
2023-01-31T17:10:27.183Z,5.00
2023-01-31T17:16:32.208Z,6.67
2023-01-31T17:22:50.426Z,4.87
2023-01-31T17:29:02.786Z,6.03
2023-01-31T17:35:08.568Z,4.90
2023-01-31T17:41:13.823Z,5.37
2023-01-31T17:47:26.867Z,6.00
2023-01-31T17:53:37.342Z,5.80
2023-01-31T17:59:45.189Z,4.37
2023-01-31T18:05:49.729Z,3.70
2023-01-31T18:11:54.307Z,7.83
2023-01-31T18:17:58.842Z,6.30
2023-01-31T18:24:03.439Z,6.60
2023-01-31T18:30:08.138Z,6.47
2023-01-31T18:36:15.804Z,6.30
2023-01-31T18:42:26.203Z,4.50
2023-01-31T18:48:31.707Z,5.80
2023-01-31T18:54:48.896Z,4.37
2023-01-31T19:00:53.520Z,4.13
2023-01-31T19:06:58.171Z,5.60
2023-01-31T19:13:02.753Z,5.17
2023-01-31T19:19:07.444Z,3.60
2023-01-31T19:25:15.573Z,5.23
2023-01-31T19:31:20.366Z,2.60
2023-01-31T19:37:39.638Z,0.83
2023-01-31T19:43:44.310Z,0.70
2023-01-31T19:49:48.938Z,2.17
2023-01-31T19:55:56.293Z,1.20
2023-01-31T20:02:15.268Z,1.47
2023-01-31T20:08:23.420Z,2.13
2023-01-31T20:14:29.637Z,2.13
2023-01-31T20:20:34.530Z,2.23
2023-01-31T20:26:39.265Z,3.00
2023-01-31T20:32:43.920Z,4.30
2023-01-31T20:38:48.451Z,2.60
2023-01-31T20:44:53.246Z,1.97
2023-01-31T20:50:57.781Z,2.20
2023-01-31T20:57:04.261Z,2.60
2023-01-31T21:03:08.958Z,2.20
2023-01-31T21:09:13.471Z,2.57
2023-01-31T21:15:18.054Z,1.37
2023-01-31T21:21:23.405Z,2.90
2023-01-31T21:27:28.775Z,2.80
2023-01-31T21:33:33.396Z,2.57
2023-01-31T21:39:37.943Z,5.57
2023-01-31T21:45:42.526Z,3.50
2023-01-31T21:51:47.102Z,1.77
2023-01-31T21:57:51.627Z,0.80
2023-01-31T22:03:56.169Z,0.83
2023-01-31T22:10:02.493Z,1.10
2023-01-31T22:16:09.904Z,2.07
2023-01-31T22:22:15.363Z,1.23
2023-01-31T22:28:19.908Z,2.10
2023-01-31T22:34:24.449Z,2.87
2023-01-31T22:40:28.992Z,2.57
2023-01-31T22:46:36.400Z,1.83
2023-01-31T22:52:40.954Z,1.83
2023-01-31T22:58:45.488Z,3.50
2023-01-31T23:04:52.311Z,2.73
2023-01-31T23:10:56.872Z,2.20
2023-01-31T23:17:20.068Z,3.40
2023-01-31T23:23:24.577Z,1.97
2023-01-31T23:29:29.154Z,1.60
2023-01-31T23:35:33.655Z,2.70
2023-01-31T23:41:38.740Z,1.67
2023-01-31T23:47:44.616Z,1.90
2023-01-31T23:53:49.168Z,2.10
2023-01-31T23:59:53.745Z,2.00
